sensor_id;sensor_type;location;lat;lon;timestamp;P1;durP1;ratioP1;P2;durP2;ratioP2
11344;SDS011;5727;42.600;23.028;2023-04-03T00:00:19;25.27;;;14.70;;
11344;SDS011;5727;42.600;23.028;2023-04-03T00:02:46;26.03;;;15.63;;
11344;SDS011;5727;42.600;23.028;2023-04-03T00:05:13;20.53;;;14.90;;
11344;SDS011;5727;42.600;23.028;2023-04-03T00:07:39;26.37;;;15.53;;
11344;SDS011;5727;42.600;23.028;2023-04-03T00:10:08;24.07;;;13.93;;
11344;SDS011;5727;42.600;23.028;2023-04-03T00:12:35;24.00;;;13.07;;
11344;SDS011;5727;42.600;23.028;2023-04-03T00:15:02;26.60;;;14.13;;
11344;SDS011;5727;42.600;23.028;2023-04-03T00:17:29;22.13;;;13.50;;
11344;SDS011;5727;42.600;23.028;2023-04-03T00:19:56;21.83;;;13.07;;
11344;SDS011;5727;42.600;23.028;2023-04-03T00:22:23;17.33;;;12.30;;
11344;SDS011;5727;42.600;23.028;2023-04-03T00:24:51;22.97;;;12.53;;
11344;SDS011;5727;42.600;23.028;2023-04-03T00:27:19;22.43;;;13.60;;
11344;SDS011;5727;42.600;23.028;2023-04-03T00:29:46;23.17;;;13.20;;
11344;SDS011;5727;42.600;23.028;2023-04-03T00:32:13;22.60;;;12.57;;
11344;SDS011;5727;42.600;23.028;2023-04-03T00:34:40;18.30;;;11.37;;
11344;SDS011;5727;42.600;23.028;2023-04-03T00:37:07;20.70;;;12.37;;
11344;SDS011;5727;42.600;23.028;2023-04-03T00:39:33;22.10;;;12.90;;
11344;SDS011;5727;42.600;23.028;2023-04-03T00:42:00;16.43;;;11.17;;
11344;SDS011;5727;42.600;23.028;2023-04-03T00:47:28;18.27;;;11.60;;
11344;SDS011;5727;42.600;23.028;2023-04-03T00:49:56;18.43;;;10.83;;
11344;SDS011;5727;42.600;23.028;2023-04-03T00:52:25;20.00;;;11.33;;
11344;SDS011;5727;42.600;23.028;2023-04-03T00:54:56;22.80;;;11.17;;
11344;SDS011;5727;42.600;23.028;2023-04-03T00:57:26;19.43;;;11.50;;
11344;SDS011;5727;42.600;23.028;2023-04-03T00:59:55;17.70;;;11.60;;
11344;SDS011;5727;42.600;23.028;2023-04-03T01:02:25;25.57;;;11.43;;
11344;SDS011;5727;42.600;23.028;2023-04-03T01:04:53;22.57;;;11.57;;
11344;SDS011;5727;42.600;23.028;2023-04-03T01:07:21;30.37;;;11.10;;
11344;SDS011;5727;42.600;23.028;2023-04-03T01:09:51;22.80;;;10.87;;
11344;SDS011;5727;42.600;23.028;2023-04-03T01:12:22;23.93;;;10.93;;
11344;SDS011;5727;42.600;23.028;2023-04-03T01:14:52;23.47;;;10.87;;
11344;SDS011;5727;42.600;23.028;2023-04-03T01:17:26;23.57;;;10.47;;
11344;SDS011;5727;42.600;23.028;2023-04-03T01:20:01;25.63;;;11.30;;
11344;SDS011;5727;42.600;23.028;2023-04-03T01:22:43;25.00;;;11.00;;
11344;SDS011;5727;42.600;23.028;2023-04-03T01:25:21;22.60;;;10.27;;
11344;SDS011;5727;42.600;23.028;2023-04-03T01:27:48;21.17;;;10.33;;
11344;SDS011;5727;42.600;23.028;2023-04-03T01:30:16;21.77;;;10.20;;
11344;SDS011;5727;42.600;23.028;2023-04-03T01:32:46;22.27;;;10.30;;
11344;SDS011;5727;42.600;23.028;2023-04-03T01:35:13;17.97;;;10.53;;
11344;SDS011;5727;42.600;23.028;2023-04-03T01:37:39;15.10;;;10.23;;
11344;SDS011;5727;42.600;23.028;2023-04-03T01:40:07;20.80;;;10.57;;
11344;SDS011;5727;42.600;23.028;2023-04-03T01:42:34;20.00;;;9.70;;
11344;SDS011;5727;42.600;23.028;2023-04-03T01:45:01;17.97;;;10.53;;
11344;SDS011;5727;42.600;23.028;2023-04-03T01:47:28;18.73;;;9.67;;
11344;SDS011;5727;42.600;23.028;2023-04-03T01:49:56;27.20;;;10.97;;
11344;SDS011;5727;42.600;23.028;2023-04-03T01:52:22;16.50;;;10.13;;
11344;SDS011;5727;42.600;23.028;2023-04-03T01:54:49;17.50;;;10.27;;
11344;SDS011;5727;42.600;23.028;2023-04-03T01:57:16;22.67;;;10.27;;
11344;SDS011;5727;42.600;23.028;2023-04-03T01:59:43;20.47;;;9.63;;
11344;SDS011;5727;42.600;23.028;2023-04-03T02:02:10;20.27;;;10.30;;
11344;SDS011;5727;42.600;23.028;2023-04-03T02:07:24;20.00;;;10.43;;
11344;SDS011;5727;42.600;23.028;2023-04-03T02:09:50;22.93;;;11.03;;
11344;SDS011;5727;42.600;23.028;2023-04-03T02:12:17;24.00;;;11.43;;
11344;SDS011;5727;42.600;23.028;2023-04-03T02:14:44;23.07;;;10.93;;
11344;SDS011;5727;42.600;23.028;2023-04-03T02:17:11;17.03;;;9.87;;
11344;SDS011;5727;42.600;23.028;2023-04-03T02:19:37;17.50;;;10.90;;
11344;SDS011;5727;42.600;23.028;2023-04-03T02:22:06;17.77;;;11.00;;
11344;SDS011;5727;42.600;23.028;2023-04-03T02:24:32;20.50;;;11.23;;
11344;SDS011;5727;42.600;23.028;2023-04-03T02:27:00;17.50;;;11.40;;
11344;SDS011;5727;42.600;23.028;2023-04-03T02:29:27;16.43;;;10.33;;
11344;SDS011;5727;42.600;23.028;2023-04-03T02:31:54;13.27;;;10.77;;
11344;SDS011;5727;42.600;23.028;2023-04-03T02:34:21;15.87;;;10.63;;
11344;SDS011;5727;42.600;23.028;2023-04-03T02:36:47;16.27;;;10.03;;
11344;SDS011;5727;42.600;23.028;2023-04-03T02:39:15;17.20;;;11.53;;
11344;SDS011;5727;42.600;23.028;2023-04-03T02:41:42;18.40;;;10.30;;
11344;SDS011;5727;42.600;23.028;2023-04-03T02:44:10;21.70;;;11.13;;
11344;SDS011;5727;42.600;23.028;2023-04-03T02:46:37;17.73;;;11.00;;
11344;SDS011;5727;42.600;23.028;2023-04-03T02:49:10;16.40;;;10.40;;
11344;SDS011;5727;42.600;23.028;2023-04-03T02:51:37;17.77;;;10.17;;
11344;SDS011;5727;42.600;23.028;2023-04-03T02:54:04;24.67;;;11.00;;
11344;SDS011;5727;42.600;23.028;2023-04-03T02:56:32;19.13;;;11.23;;
11344;SDS011;5727;42.600;23.028;2023-04-03T02:58:59;19.50;;;11.00;;
11344;SDS011;5727;42.600;23.028;2023-04-03T03:01:26;17.83;;;11.20;;
11344;SDS011;5727;42.600;23.028;2023-04-03T03:03:56;22.00;;;10.90;;
11344;SDS011;5727;42.600;23.028;2023-04-03T03:06:23;22.47;;;11.73;;
11344;SDS011;5727;42.600;23.028;2023-04-03T03:08:50;20.23;;;11.60;;
11344;SDS011;5727;42.600;23.028;2023-04-03T03:11:16;21.83;;;11.37;;
11344;SDS011;5727;42.600;23.028;2023-04-03T03:13:45;19.50;;;10.70;;
11344;SDS011;5727;42.600;23.028;2023-04-03T03:16:11;18.97;;;11.43;;
11344;SDS011;5727;42.600;23.028;2023-04-03T03:18:38;20.13;;;11.23;;
11344;SDS011;5727;42.600;23.028;2023-04-03T03:21:05;20.07;;;11.80;;
11344;SDS011;5727;42.600;23.028;2023-04-03T03:23:32;20.47;;;11.13;;
11344;SDS011;5727;42.600;23.028;2023-04-03T03:26:00;16.53;;;11.03;;
11344;SDS011;5727;42.600;23.028;2023-04-03T03:28:28;27.07;;;13.00;;
11344;SDS011;5727;42.600;23.028;2023-04-03T03:30:57;16.73;;;11.17;;
11344;SDS011;5727;42.600;23.028;2023-04-03T03:33:24;20.70;;;11.90;;
11344;SDS011;5727;42.600;23.028;2023-04-03T03:35:51;21.23;;;11.70;;
11344;SDS011;5727;42.600;23.028;2023-04-03T03:38:18;21.20;;;12.37;;
11344;SDS011;5727;42.600;23.028;2023-04-03T03:40:46;23.37;;;12.50;;
11344;SDS011;5727;42.600;23.028;2023-04-03T03:43:13;23.80;;;12.53;;
11344;SDS011;5727;42.600;23.028;2023-04-03T03:45:40;22.03;;;12.33;;
11344;SDS011;5727;42.600;23.028;2023-04-03T03:48:08;22.23;;;13.23;;
11344;SDS011;5727;42.600;23.028;2023-04-03T03:50:35;38.77;;;20.07;;
11344;SDS011;5727;42.600;23.028;2023-04-03T03:53:02;36.43;;;19.17;;
11344;SDS011;5727;42.600;23.028;2023-04-03T03:55:29;26.93;;;16.50;;
11344;SDS011;5727;42.600;23.028;2023-04-03T03:57:55;25.73;;;14.17;;
11344;SDS011;5727;42.600;23.028;2023-04-03T04:00:22;26.77;;;14.17;;
11344;SDS011;5727;42.600;23.028;2023-04-03T04:02:49;20.90;;;13.10;;
11344;SDS011;5727;42.600;23.028;2023-04-03T04:05:17;22.43;;;13.37;;
11344;SDS011;5727;42.600;23.028;2023-04-03T04:07:44;26.90;;;13.00;;
11344;SDS011;5727;42.600;23.028;2023-04-03T04:10:11;32.07;;;16.20;;
11344;SDS011;5727;42.600;23.028;2023-04-03T04:12:38;24.47;;;14.47;;
11344;SDS011;5727;42.600;23.028;2023-04-03T04:15:05;26.97;;;14.03;;
11344;SDS011;5727;42.600;23.028;2023-04-03T04:17:33;60.10;;;14.93;;
11344;SDS011;5727;42.600;23.028;2023-04-03T04:20:00;29.00;;;12.57;;
11344;SDS011;5727;42.600;23.028;2023-04-03T04:22:29;25.13;;;13.37;;
11344;SDS011;5727;42.600;23.028;2023-04-03T04:24:55;18.90;;;13.80;;
11344;SDS011;5727;42.600;23.028;2023-04-03T04:27:22;20.87;;;12.93;;
11344;SDS011;5727;42.600;23.028;2023-04-03T04:29:49;33.93;;;15.10;;
11344;SDS011;5727;42.600;23.028;2023-04-03T04:32:15;29.93;;;15.57;;
11344;SDS011;5727;42.600;23.028;2023-04-03T04:34:42;30.57;;;17.60;;
11344;SDS011;5727;42.600;23.028;2023-04-03T04:37:09;24.20;;;15.40;;
11344;SDS011;5727;42.600;23.028;2023-04-03T04:39:37;24.80;;;14.07;;
11344;SDS011;5727;42.600;23.028;2023-04-03T04:42:04;25.73;;;17.37;;
11344;SDS011;5727;42.600;23.028;2023-04-03T04:44:32;30.80;;;22.33;;
11344;SDS011;5727;42.600;23.028;2023-04-03T04:46:58;37.83;;;31.40;;
11344;SDS011;5727;42.600;23.028;2023-04-03T04:49:25;39.90;;;33.57;;
11344;SDS011;5727;42.600;23.028;2023-04-03T04:51:52;41.90;;;34.10;;
11344;SDS011;5727;42.600;23.028;2023-04-03T04:54:19;43.93;;;37.60;;
11344;SDS011;5727;42.600;23.028;2023-04-03T04:56:47;46.80;;;39.17;;
11344;SDS011;5727;42.600;23.028;2023-04-03T04:59:13;49.80;;;37.50;;
11344;SDS011;5727;42.600;23.028;2023-04-03T05:01:40;36.10;;;29.63;;
11344;SDS011;5727;42.600;23.028;2023-04-03T05:04:07;33.37;;;24.73;;
11344;SDS011;5727;42.600;23.028;2023-04-03T05:06:34;38.03;;;24.63;;
11344;SDS011;5727;42.600;23.028;2023-04-03T05:09:01;30.83;;;23.97;;
11344;SDS011;5727;42.600;23.028;2023-04-03T05:11:27;42.20;;;30.87;;
11344;SDS011;5727;42.600;23.028;2023-04-03T05:13:55;39.67;;;27.87;;
11344;SDS011;5727;42.600;23.028;2023-04-03T05:16:22;38.00;;;28.50;;
11344;SDS011;5727;42.600;23.028;2023-04-03T05:18:49;42.60;;;26.00;;
11344;SDS011;5727;42.600;23.028;2023-04-03T05:21:16;51.20;;;27.17;;
11344;SDS011;5727;42.600;23.028;2023-04-03T05:23:43;34.87;;;24.00;;
11344;SDS011;5727;42.600;23.028;2023-04-03T05:26:10;35.67;;;20.50;;
11344;SDS011;5727;42.600;23.028;2023-04-03T05:28:37;36.30;;;22.80;;
11344;SDS011;5727;42.600;23.028;2023-04-03T05:31:05;39.17;;;21.83;;
11344;SDS011;5727;42.600;23.028;2023-04-03T05:33:32;37.37;;;24.77;;
11344;SDS011;5727;42.600;23.028;2023-04-03T05:36:01;39.70;;;27.43;;
11344;SDS011;5727;42.600;23.028;2023-04-03T05:38:28;43.20;;;28.00;;
11344;SDS011;5727;42.600;23.028;2023-04-03T05:40:55;50.93;;;30.63;;
11344;SDS011;5727;42.600;23.028;2023-04-03T05:43:22;39.80;;;29.20;;
11344;SDS011;5727;42.600;23.028;2023-04-03T05:45:48;42.40;;;29.33;;
11344;SDS011;5727;42.600;23.028;2023-04-03T05:48:17;39.27;;;27.80;;
11344;SDS011;5727;42.600;23.028;2023-04-03T05:50:43;40.67;;;28.77;;
11344;SDS011;5727;42.600;23.028;2023-04-03T05:53:11;43.20;;;29.50;;
11344;SDS011;5727;42.600;23.028;2023-04-03T05:55:44;52.00;;;33.23;;
11344;SDS011;5727;42.600;23.028;2023-04-03T05:58:10;56.83;;;33.50;;
11344;SDS011;5727;42.600;23.028;2023-04-03T06:00:37;47.03;;;30.90;;
11344;SDS011;5727;42.600;23.028;2023-04-03T06:03:04;57.33;;;34.77;;
11344;SDS011;5727;42.600;23.028;2023-04-03T06:05:32;52.27;;;34.07;;
11344;SDS011;5727;42.600;23.028;2023-04-03T06:08:00;58.03;;;34.50;;
11344;SDS011;5727;42.600;23.028;2023-04-03T06:10:26;54.00;;;36.40;;
11344;SDS011;5727;42.600;23.028;2023-04-03T06:12:53;59.00;;;38.00;;
11344;SDS011;5727;42.600;23.028;2023-04-03T06:15:20;53.00;;;35.33;;
11344;SDS011;5727;42.600;23.028;2023-04-03T06:17:47;59.00;;;37.43;;
11344;SDS011;5727;42.600;23.028;2023-04-03T06:20:14;57.57;;;38.20;;
11344;SDS011;5727;42.600;23.028;2023-04-03T06:22:42;58.00;;;37.27;;
11344;SDS011;5727;42.600;23.028;2023-04-03T06:25:09;57.27;;;34.47;;
11344;SDS011;5727;42.600;23.028;2023-04-03T06:27:36;52.40;;;33.13;;
11344;SDS011;5727;42.600;23.028;2023-04-03T06:30:03;42.73;;;27.03;;
11344;SDS011;5727;42.600;23.028;2023-04-03T06:32:31;36.77;;;25.50;;
11344;SDS011;5727;42.600;23.028;2023-04-03T06:34:58;31.63;;;21.07;;
11344;SDS011;5727;42.600;23.028;2023-04-03T06:37:25;15.43;;;12.33;;
11344;SDS011;5727;42.600;23.028;2023-04-03T06:39:55;20.90;;;13.03;;
11344;SDS011;5727;42.600;23.028;2023-04-03T06:42:22;14.70;;;10.13;;
11344;SDS011;5727;42.600;23.028;2023-04-03T06:44:49;8.30;;;7.07;;
11344;SDS011;5727;42.600;23.028;2023-04-03T06:47:16;8.40;;;6.77;;
11344;SDS011;5727;42.600;23.028;2023-04-03T06:49:43;7.47;;;6.77;;
11344;SDS011;5727;42.600;23.028;2023-04-03T06:52:10;6.10;;;5.50;;
11344;SDS011;5727;42.600;23.028;2023-04-03T06:54:38;7.80;;;5.90;;
11344;SDS011;5727;42.600;23.028;2023-04-03T06:57:06;6.07;;;4.90;;
11344;SDS011;5727;42.600;23.028;2023-04-03T06:59:33;5.63;;;5.07;;
11344;SDS011;5727;42.600;23.028;2023-04-03T07:02:01;5.97;;;4.83;;
11344;SDS011;5727;42.600;23.028;2023-04-03T07:04:28;4.63;;;4.10;;
11344;SDS011;5727;42.600;23.028;2023-04-03T07:06:55;4.33;;;3.93;;
11344;SDS011;5727;42.600;23.028;2023-04-03T07:09:21;4.23;;;3.83;;
11344;SDS011;5727;42.600;23.028;2023-04-03T07:11:48;4.17;;;3.73;;
11344;SDS011;5727;42.600;23.028;2023-04-03T07:14:16;4.83;;;4.40;;
11344;SDS011;5727;42.600;23.028;2023-04-03T07:16:43;5.13;;;3.77;;
11344;SDS011;5727;42.600;23.028;2023-04-03T07:19:10;4.67;;;3.30;;
11344;SDS011;5727;42.600;23.028;2023-04-03T07:21:36;3.17;;;2.97;;
11344;SDS011;5727;42.600;23.028;2023-04-03T07:24:03;2.97;;;2.77;;
11344;SDS011;5727;42.600;23.028;2023-04-03T07:26:30;3.33;;;3.03;;
11344;SDS011;5727;42.600;23.028;2023-04-03T07:28:57;3.60;;;3.30;;
11344;SDS011;5727;42.600;23.028;2023-04-03T07:31:26;3.63;;;3.33;;
11344;SDS011;5727;42.600;23.028;2023-04-03T07:33:52;6.80;;;2.97;;
11344;SDS011;5727;42.600;23.028;2023-04-03T07:36:21;3.13;;;2.93;;
11344;SDS011;5727;42.600;23.028;2023-04-03T07:38:48;2.90;;;2.60;;
11344;SDS011;5727;42.600;23.028;2023-04-03T07:41:16;2.83;;;2.63;;
11344;SDS011;5727;42.600;23.028;2023-04-03T07:43:45;3.07;;;2.80;;
11344;SDS011;5727;42.600;23.028;2023-04-03T07:46:14;2.80;;;2.43;;
11344;SDS011;5727;42.600;23.028;2023-04-03T07:48:43;2.40;;;2.30;;
11344;SDS011;5727;42.600;23.028;2023-04-03T07:51:10;2.47;;;2.27;;
11344;SDS011;5727;42.600;23.028;2023-04-03T07:53:38;3.37;;;2.83;;
11344;SDS011;5727;42.600;23.028;2023-04-03T07:56:04;2.90;;;2.70;;
11344;SDS011;5727;42.600;23.028;2023-04-03T07:58:31;3.47;;;2.40;;
11344;SDS011;5727;42.600;23.028;2023-04-03T08:00:58;3.37;;;2.50;;
11344;SDS011;5727;42.600;23.028;2023-04-03T08:03:25;2.17;;;1.97;;
11344;SDS011;5727;42.600;23.028;2023-04-03T08:05:54;2.87;;;2.43;;
11344;SDS011;5727;42.600;23.028;2023-04-03T08:08:21;3.80;;;2.47;;
11344;SDS011;5727;42.600;23.028;2023-04-03T08:10:49;3.03;;;2.10;;
11344;SDS011;5727;42.600;23.028;2023-04-03T08:13:16;2.60;;;2.03;;
11344;SDS011;5727;42.600;23.028;2023-04-03T08:15:43;2.23;;;2.13;;
11344;SDS011;5727;42.600;23.028;2023-04-03T08:18:10;2.90;;;2.20;;
11344;SDS011;5727;42.600;23.028;2023-04-03T08:20:38;2.93;;;2.07;;
11344;SDS011;5727;42.600;23.028;2023-04-03T08:23:06;2.07;;;1.87;;
11344;SDS011;5727;42.600;23.028;2023-04-03T08:25:33;3.40;;;2.00;;
11344;SDS011;5727;42.600;23.028;2023-04-03T08:28:01;3.47;;;2.00;;
11344;SDS011;5727;42.600;23.028;2023-04-03T08:30:28;1.87;;;1.67;;
11344;SDS011;5727;42.600;23.028;2023-04-03T08:32:56;1.73;;;1.63;;
11344;SDS011;5727;42.600;23.028;2023-04-03T08:35:23;1.20;;;1.20;;
11344;SDS011;5727;42.600;23.028;2023-04-03T08:37:50;1.70;;;1.60;;
11344;SDS011;5727;42.600;23.028;2023-04-03T08:40:18;3.93;;;2.20;;
11344;SDS011;5727;42.600;23.028;2023-04-03T08:42:48;1.80;;;1.70;;
11344;SDS011;5727;42.600;23.028;2023-04-03T08:45:26;2.37;;;2.17;;
11344;SDS011;5727;42.600;23.028;2023-04-03T08:48:11;4.67;;;3.07;;
11344;SDS011;5727;42.600;23.028;2023-04-03T08:50:42;1.60;;;1.50;;
11344;SDS011;5727;42.600;23.028;2023-04-03T08:53:14;1.77;;;1.67;;
11344;SDS011;5727;42.600;23.028;2023-04-03T08:55:44;2.27;;;1.93;;
11344;SDS011;5727;42.600;23.028;2023-04-03T08:58:14;1.80;;;1.70;;
11344;SDS011;5727;42.600;23.028;2023-04-03T09:00:44;1.80;;;1.70;;
11344;SDS011;5727;42.600;23.028;2023-04-03T09:03:15;2.47;;;1.93;;
11344;SDS011;5727;42.600;23.028;2023-04-03T09:05:45;2.07;;;1.70;;
11344;SDS011;5727;42.600;23.028;2023-04-03T09:08:23;2.67;;;1.70;;
11344;SDS011;5727;42.600;23.028;2023-04-03T09:10:58;2.20;;;1.70;;
11344;SDS011;5727;42.600;23.028;2023-04-03T09:13:33;1.77;;;1.63;;
11344;SDS011;5727;42.600;23.028;2023-04-03T09:16:10;1.73;;;1.40;;
11344;SDS011;5727;42.600;23.028;2023-04-03T09:18:48;1.93;;;1.80;;
11344;SDS011;5727;42.600;23.028;2023-04-03T09:21:20;2.20;;;1.50;;
11344;SDS011;5727;42.600;23.028;2023-04-03T09:23:54;2.03;;;1.80;;
11344;SDS011;5727;42.600;23.028;2023-04-03T09:26:30;1.90;;;1.70;;
11344;SDS011;5727;42.600;23.028;2023-04-03T09:29:02;1.80;;;1.70;;
11344;SDS011;5727;42.600;23.028;2023-04-03T09:31:35;2.47;;;1.43;;
11344;SDS011;5727;42.600;23.028;2023-04-03T09:34:05;1.70;;;1.60;;
11344;SDS011;5727;42.600;23.028;2023-04-03T09:36:37;1.70;;;1.60;;
11344;SDS011;5727;42.600;23.028;2023-04-03T09:39:10;1.57;;;1.47;;
11344;SDS011;5727;42.600;23.028;2023-04-03T09:41:40;3.63;;;2.10;;
11344;SDS011;5727;42.600;23.028;2023-04-03T09:44:20;3.70;;;2.00;;
11344;SDS011;5727;42.600;23.028;2023-04-03T09:46:48;2.70;;;2.50;;
11344;SDS011;5727;42.600;23.028;2023-04-03T09:49:16;2.40;;;2.20;;
11344;SDS011;5727;42.600;23.028;2023-04-03T09:51:43;2.17;;;1.90;;
11344;SDS011;5727;42.600;23.028;2023-04-03T09:57:03;2.60;;;2.40;;
11344;SDS011;5727;42.600;23.028;2023-04-03T09:59:33;3.10;;;2.60;;
11344;SDS011;5727;42.600;23.028;2023-04-03T10:02:00;3.03;;;2.40;;
11344;SDS011;5727;42.600;23.028;2023-04-03T10:04:37;3.17;;;2.33;;
11344;SDS011;5727;42.600;23.028;2023-04-03T10:07:30;1.90;;;1.80;;
11344;SDS011;5727;42.600;23.028;2023-04-03T10:09:57;5.03;;;2.90;;
11344;SDS011;5727;42.600;23.028;2023-04-03T10:12:27;2.73;;;2.53;;
11344;SDS011;5727;42.600;23.028;2023-04-03T10:14:55;3.07;;;2.20;;
11344;SDS011;5727;42.600;23.028;2023-04-03T10:17:26;6.13;;;2.90;;
11344;SDS011;5727;42.600;23.028;2023-04-03T10:20:07;4.23;;;2.70;;
11344;SDS011;5727;42.600;23.028;2023-04-03T10:22:50;4.53;;;2.90;;
11344;SDS011;5727;42.600;23.028;2023-04-03T10:25:27;4.10;;;2.70;;
11344;SDS011;5727;42.600;23.028;2023-04-03T10:28:00;5.07;;;2.67;;
11344;SDS011;5727;42.600;23.028;2023-04-03T10:30:36;3.57;;;2.67;;
11344;SDS011;5727;42.600;23.028;2023-04-03T10:36:07;6.47;;;3.17;;
11344;SDS011;5727;42.600;23.028;2023-04-03T10:38:46;3.53;;;3.10;;
11344;SDS011;5727;42.600;23.028;2023-04-03T10:41:23;4.20;;;3.23;;
11344;SDS011;5727;42.600;23.028;2023-04-03T10:44:05;4.37;;;3.63;;
11344;SDS011;5727;42.600;23.028;2023-04-03T10:46:42;5.83;;;4.00;;
11344;SDS011;5727;42.600;23.028;2023-04-03T10:49:17;6.07;;;4.00;;
11344;SDS011;5727;42.600;23.028;2023-04-03T10:51:54;6.27;;;4.70;;
11344;SDS011;5727;42.600;23.028;2023-04-03T10:54:31;6.17;;;4.40;;
11344;SDS011;5727;42.600;23.028;2023-04-03T10:57:03;5.23;;;4.37;;
11344;SDS011;5727;42.600;23.028;2023-04-03T10:59:35;8.43;;;3.50;;
11344;SDS011;5727;42.600;23.028;2023-04-03T11:02:06;7.43;;;4.20;;
11344;SDS011;5727;42.600;23.028;2023-04-03T11:04:40;10.70;;;3.20;;
11344;SDS011;5727;42.600;23.028;2023-04-03T11:07:12;4.97;;;3.53;;
11344;SDS011;5727;42.600;23.028;2023-04-03T11:09:46;3.33;;;3.00;;
11344;SDS011;5727;42.600;23.028;2023-04-03T11:12:17;2.63;;;1.87;;
11344;SDS011;5727;42.600;23.028;2023-04-03T11:14:49;2.53;;;1.87;;
11344;SDS011;5727;42.600;23.028;2023-04-03T11:17:23;2.40;;;1.93;;
11344;SDS011;5727;42.600;23.028;2023-04-03T11:19:59;4.30;;;2.27;;
11344;SDS011;5727;42.600;23.028;2023-04-03T11:22:33;3.50;;;2.03;;
11344;SDS011;5727;42.600;23.028;2023-04-03T11:25:04;2.00;;;1.80;;
11344;SDS011;5727;42.600;23.028;2023-04-03T11:27:46;2.10;;;1.90;;
11344;SDS011;5727;42.600;23.028;2023-04-03T11:30:19;1.90;;;1.80;;
11344;SDS011;5727;42.600;23.028;2023-04-03T11:35:47;2.60;;;1.87;;
11344;SDS011;5727;42.600;23.028;2023-04-03T11:38:18;2.40;;;2.20;;
11344;SDS011;5727;42.600;23.028;2023-04-03T11:40:51;2.27;;;2.00;;
11344;SDS011;5727;42.600;23.028;2023-04-03T11:43:23;2.83;;;2.40;;
11344;SDS011;5727;42.600;23.028;2023-04-03T11:45:54;1.90;;;1.80;;
11344;SDS011;5727;42.600;23.028;2023-04-03T12:03:55;3.70;;;3.40;;
11344;SDS011;5727;42.600;23.028;2023-04-03T12:12:36;4.03;;;3.60;;
11344;SDS011;5727;42.600;23.028;2023-04-03T12:18:41;5.43;;;3.40;;
11344;SDS011;5727;42.600;23.028;2023-04-03T12:21:10;3.60;;;3.07;;
11344;SDS011;5727;42.600;23.028;2023-04-03T12:23:55;3.20;;;2.90;;
11344;SDS011;5727;42.600;23.028;2023-04-03T12:26:25;4.10;;;3.70;;
11344;SDS011;5727;42.600;23.028;2023-04-03T12:28:56;2.50;;;2.30;;
11344;SDS011;5727;42.600;23.028;2023-04-03T12:31:24;3.03;;;2.60;;
11344;SDS011;5727;42.600;23.028;2023-04-03T12:34:13;3.33;;;2.90;;
11344;SDS011;5727;42.600;23.028;2023-04-03T12:36:54;3.97;;;2.73;;
11344;SDS011;5727;42.600;23.028;2023-04-03T12:39:48;2.57;;;2.37;;
11344;SDS011;5727;42.600;23.028;2023-04-03T12:42:29;3.70;;;2.83;;
11344;SDS011;5727;42.600;23.028;2023-04-03T12:45:15;2.80;;;2.60;;
11344;SDS011;5727;42.600;23.028;2023-04-03T12:47:45;3.07;;;2.77;;
11344;SDS011;5727;42.600;23.028;2023-04-03T12:50:18;3.13;;;2.87;;
11344;SDS011;5727;42.600;23.028;2023-04-03T12:52:51;3.27;;;2.67;;
11344;SDS011;5727;42.600;23.028;2023-04-03T12:55:22;2.60;;;2.40;;
11344;SDS011;5727;42.600;23.028;2023-04-03T12:57:49;3.03;;;2.77;;
11344;SDS011;5727;42.600;23.028;2023-04-03T13:03:05;2.60;;;2.40;;
11344;SDS011;5727;42.600;23.028;2023-04-03T13:05:46;2.90;;;2.70;;
11344;SDS011;5727;42.600;23.028;2023-04-03T13:08:13;2.70;;;2.50;;
11344;SDS011;5727;42.600;23.028;2023-04-03T13:10:47;2.50;;;2.40;;
11344;SDS011;5727;42.600;23.028;2023-04-03T13:13:19;2.77;;;2.60;;
11344;SDS011;5727;42.600;23.028;2023-04-03T13:15:48;3.00;;;2.80;;
11344;SDS011;5727;42.600;23.028;2023-04-03T13:18:25;4.30;;;2.77;;
11344;SDS011;5727;42.600;23.028;2023-04-03T13:20:55;3.20;;;3.00;;
11344;SDS011;5727;42.600;23.028;2023-04-03T13:23:27;3.07;;;2.87;;
11344;SDS011;5727;42.600;23.028;2023-04-03T13:25:54;2.80;;;2.60;;
11344;SDS011;5727;42.600;23.028;2023-04-03T13:28:26;3.30;;;3.00;;
11344;SDS011;5727;42.600;23.028;2023-04-03T13:30:54;2.97;;;2.77;;
11344;SDS011;5727;42.600;23.028;2023-04-03T13:33:26;3.53;;;3.23;;
11344;SDS011;5727;42.600;23.028;2023-04-03T13:36:00;3.23;;;2.93;;
11344;SDS011;5727;42.600;23.028;2023-04-03T13:38:29;2.87;;;2.57;;
11344;SDS011;5727;42.600;23.028;2023-04-03T13:40:59;3.10;;;2.83;;
11344;SDS011;5727;42.600;23.028;2023-04-03T13:43:29;3.10;;;2.90;;
11344;SDS011;5727;42.600;23.028;2023-04-03T13:45:59;4.17;;;2.70;;
11344;SDS011;5727;42.600;23.028;2023-04-03T13:48:37;3.10;;;2.90;;
11344;SDS011;5727;42.600;23.028;2023-04-03T13:51:16;5.70;;;4.50;;
11344;SDS011;5727;42.600;23.028;2023-04-03T13:53:47;3.13;;;2.93;;
11344;SDS011;5727;42.600;23.028;2023-04-03T13:56:18;3.30;;;3.00;;
11344;SDS011;5727;42.600;23.028;2023-04-03T13:58:53;3.37;;;3.07;;
11344;SDS011;5727;42.600;23.028;2023-04-03T14:01:39;2.60;;;2.40;;
11344;SDS011;5727;42.600;23.028;2023-04-03T14:04:14;2.80;;;2.60;;
11344;SDS011;5727;42.600;23.028;2023-04-03T14:06:44;2.80;;;2.60;;
11344;SDS011;5727;42.600;23.028;2023-04-03T14:09:12;2.50;;;2.40;;
11344;SDS011;5727;42.600;23.028;2023-04-03T14:11:40;3.27;;;2.97;;
11344;SDS011;5727;42.600;23.028;2023-04-03T14:14:11;3.37;;;3.10;;
11344;SDS011;5727;42.600;23.028;2023-04-03T14:16:41;3.00;;;2.80;;
11344;SDS011;5727;42.600;23.028;2023-04-03T14:19:14;3.10;;;2.90;;
11344;SDS011;5727;42.600;23.028;2023-04-03T14:21:46;3.20;;;3.00;;
11344;SDS011;5727;42.600;23.028;2023-04-03T14:24:13;2.97;;;2.77;;
11344;SDS011;5727;42.600;23.028;2023-04-03T14:26:41;3.00;;;2.80;;
11344;SDS011;5727;42.600;23.028;2023-04-03T14:29:09;3.10;;;2.90;;
11344;SDS011;5727;42.600;23.028;2023-04-03T14:31:37;3.17;;;2.87;;
11344;SDS011;5727;42.600;23.028;2023-04-03T14:34:04;2.57;;;2.37;;
11344;SDS011;5727;42.600;23.028;2023-04-03T14:36:30;3.00;;;2.80;;
11344;SDS011;5727;42.600;23.028;2023-04-03T14:38:59;2.80;;;2.60;;
11344;SDS011;5727;42.600;23.028;2023-04-03T14:41:27;3.40;;;3.10;;
11344;SDS011;5727;42.600;23.028;2023-04-03T14:43:54;2.90;;;2.70;;
11344;SDS011;5727;42.600;23.028;2023-04-03T14:46:22;2.73;;;2.53;;
11344;SDS011;5727;42.600;23.028;2023-04-03T14:48:53;3.03;;;2.83;;
11344;SDS011;5727;42.600;23.028;2023-04-03T14:51:20;3.20;;;3.00;;
11344;SDS011;5727;42.600;23.028;2023-04-03T14:53:46;2.57;;;2.37;;
11344;SDS011;5727;42.600;23.028;2023-04-03T14:56:18;3.07;;;2.87;;
11344;SDS011;5727;42.600;23.028;2023-04-03T14:58:48;2.97;;;2.77;;
11344;SDS011;5727;42.600;23.028;2023-04-03T15:01:15;3.23;;;2.93;;
11344;SDS011;5727;42.600;23.028;2023-04-03T15:03:42;2.40;;;2.20;;
11344;SDS011;5727;42.600;23.028;2023-04-03T15:06:09;2.47;;;2.37;;
11344;SDS011;5727;42.600;23.028;2023-04-03T15:08:38;2.53;;;2.33;;
11344;SDS011;5727;42.600;23.028;2023-04-03T15:11:06;2.40;;;2.30;;
11344;SDS011;5727;42.600;23.028;2023-04-03T15:13:34;3.00;;;2.80;;
11344;SDS011;5727;42.600;23.028;2023-04-03T15:16:01;2.67;;;2.47;;
11344;SDS011;5727;42.600;23.028;2023-04-03T15:18:29;2.57;;;2.37;;
11344;SDS011;5727;42.600;23.028;2023-04-03T15:21:02;3.37;;;2.67;;
11344;SDS011;5727;42.600;23.028;2023-04-03T15:23:29;2.90;;;2.47;;
11344;SDS011;5727;42.600;23.028;2023-04-03T15:25:56;2.10;;;2.00;;
11344;SDS011;5727;42.600;23.028;2023-04-03T15:28:25;2.40;;;2.20;;
11344;SDS011;5727;42.600;23.028;2023-04-03T15:30:57;2.70;;;2.50;;